Главная страница
METAR-TAF:

METAR-TAF

Аэропорты :

Хейнс, Аляска, США

широта: 59-15N, долгота: 135-31W, высота над уровнем моря: 5 м

Текущие метеонаблюдения

Эта сводка был подготовлена 9 минут назад, в 19:54 UTC
Ветер 12 Узел от западно-северо-западный
Температура 13°C
Влажность 35%
Давление 1022 hPa
Видимость: 16.1 км
ясное небо

METAR: PAHN 181954Z AUTO 30012KT 10SM CLR 13/M02 A3017 RMK AO2 SLP219 T01281017 TSNO

Время: 12:03 (20:03 UTC)

Прогноз

Эта сводка был подготовлена 2 часа и 43 минут назад, в 17:20 UTC
Прогноз действительный с 18-го 18 UTC до 19-го 18 UTC
Ветер 12 Узел от западно-северо-западный
Видимость: 10 км
ясное небо
С 19-го 0000 UTC
Ветер 5 Узел от восточно-юго-восточный
Видимость: 10 км
ясное небо
С 19-го 0700 UTC
Ветер 4 Узел от северо-западный
Видимость: 10 км
небольшая облачность на высоте 25000 фута

TAF: PAHN 181720Z 1818/1918 30012KT P6SM SKC FM190000 12005KT P6SM SKC FM190700 32004KT P6SM FEW250 AMD LTD TO CLD VIS AND WIND

Метеонаблюдения и прогнозы для более 4000 аэропортов (сводки METAR и TAF).

Имеющиеся станции представлены на карте желтыми и красными точками.

Чтобы увидеть название станции, наведите на нее мышь.

Затем щелкните, чтобы увидеть метеонаблюдения и метеопрогнозы.

Управление картой: чтобы увеличить масштаб, щелкните зеленые кнопки с черным крестиком; чтобы уменьшить масштаб, щелкните зеленую кнопку с тире; для просмотра соседних карт щелкайте зеленые стрелки.


METAR-TAF: